sensor_id;sensor_type;location;lat;lon;timestamp;P1;durP1;ratioP1;P2;durP2;ratioP2
56419;SDS011;42323;52.170;7.538;2023-04-06T00:00:33;8.63;;;4.47;;
56419;SDS011;42323;52.170;7.538;2023-04-06T00:03:00;7.07;;;5.10;;
56419;SDS011;42323;52.170;7.538;2023-04-06T00:05:26;7.30;;;4.85;;
56419;SDS011;42323;52.170;7.538;2023-04-06T00:07:59;6.70;;;4.72;;
56419;SDS011;42323;52.170;7.538;2023-04-06T00:10:26;7.88;;;5.00;;
56419;SDS011;42323;52.170;7.538;2023-04-06T00:12:53;6.00;;;4.43;;
56419;SDS011;42323;52.170;7.538;2023-04-06T00:15:21;6.93;;;5.15;;
56419;SDS011;42323;52.170;7.538;2023-04-06T00:17:47;8.40;;;4.72;;
56419;SDS011;42323;52.170;7.538;2023-04-06T00:20:14;8.38;;;4.70;;
56419;SDS011;42323;52.170;7.538;2023-04-06T00:22:43;7.40;;;4.35;;
56419;SDS011;42323;52.170;7.538;2023-04-06T00:25:10;7.47;;;4.72;;
56419;SDS011;42323;52.170;7.538;2023-04-06T00:27:38;7.22;;;4.20;;
56419;SDS011;42323;52.170;7.538;2023-04-06T00:30:04;7.40;;;4.53;;
56419;SDS011;42323;52.170;7.538;2023-04-06T00:32:32;7.57;;;4.93;;
56419;SDS011;42323;52.170;7.538;2023-04-06T00:34:58;6.82;;;4.63;;
56419;SDS011;42323;52.170;7.538;2023-04-06T00:37:25;6.50;;;4.75;;
56419;SDS011;42323;52.170;7.538;2023-04-06T00:39:51;6.82;;;5.00;;
56419;SDS011;42323;52.170;7.538;2023-04-06T00:42:18;7.57;;;5.03;;
56419;SDS011;42323;52.170;7.538;2023-04-06T00:44:55;6.10;;;4.75;;
56419;SDS011;42323;52.170;7.538;2023-04-06T00:47:23;9.18;;;5.60;;
56419;SDS011;42323;52.170;7.538;2023-04-06T00:49:53;8.02;;;5.32;;
56419;SDS011;42323;52.170;7.538;2023-04-06T00:52:21;6.05;;;4.55;;
56419;SDS011;42323;52.170;7.538;2023-04-06T00:54:48;9.40;;;5.55;;
56419;SDS011;42323;52.170;7.538;2023-04-06T00:57:16;8.07;;;5.15;;
56419;SDS011;42323;52.170;7.538;2023-04-06T00:59:43;5.68;;;4.47;;
56419;SDS011;42323;52.170;7.538;2023-04-06T01:02:11;7.47;;;5.28;;
56419;SDS011;42323;52.170;7.538;2023-04-06T01:04:38;8.18;;;4.82;;
56419;SDS011;42323;52.170;7.538;2023-04-06T01:07:05;7.78;;;5.38;;
56419;SDS011;42323;52.170;7.538;2023-04-06T01:09:32;8.98;;;4.93;;
56419;SDS011;42323;52.170;7.538;2023-04-06T01:11:59;5.38;;;4.53;;
56419;SDS011;42323;52.170;7.538;2023-04-06T01:14:25;7.28;;;5.30;;
56419;SDS011;42323;52.170;7.538;2023-04-06T01:16:52;10.23;;;4.55;;
56419;SDS011;42323;52.170;7.538;2023-04-06T01:19:19;7.18;;;5.43;;
56419;SDS011;42323;52.170;7.538;2023-04-06T01:21:47;6.35;;;4.75;;
56419;SDS011;42323;52.170;7.538;2023-04-06T01:24:15;10.90;;;5.63;;
56419;SDS011;42323;52.170;7.538;2023-04-06T01:26:42;7.20;;;5.43;;
56419;SDS011;42323;52.170;7.538;2023-04-06T01:29:09;6.05;;;4.72;;
56419;SDS011;42323;52.170;7.538;2023-04-06T01:31:36;7.72;;;5.47;;
56419;SDS011;42323;52.170;7.538;2023-04-06T01:34:02;5.95;;;4.63;;
56419;SDS011;42323;52.170;7.538;2023-04-06T01:36:29;8.85;;;5.45;;
56419;SDS011;42323;52.170;7.538;2023-04-06T01:38:55;7.88;;;5.13;;
56419;SDS011;42323;52.170;7.538;2023-04-06T01:41:22;8.60;;;5.55;;
56419;SDS011;42323;52.170;7.538;2023-04-06T01:43:49;7.68;;;5.20;;
56419;SDS011;42323;52.170;7.538;2023-04-06T01:46:15;7.50;;;5.18;;
56419;SDS011;42323;52.170;7.538;2023-04-06T01:48:42;7.65;;;5.43;;
56419;SDS011;42323;52.170;7.538;2023-04-06T01:51:09;8.88;;;5.95;;
56419;SDS011;42323;52.170;7.538;2023-04-06T01:53:35;6.38;;;5.35;;
56419;SDS011;42323;52.170;7.538;2023-04-06T01:56:02;6.15;;;4.30;;
56419;SDS011;42323;52.170;7.538;2023-04-06T01:58:28;6.85;;;4.55;;
56419;SDS011;42323;52.170;7.538;2023-04-06T02:00:55;6.85;;;5.03;;
56419;SDS011;42323;52.170;7.538;2023-04-06T02:03:22;8.25;;;5.35;;
56419;SDS011;42323;52.170;7.538;2023-04-06T02:05:48;9.45;;;4.68;;
56419;SDS011;42323;52.170;7.538;2023-04-06T02:08:15;9.82;;;5.93;;
56419;SDS011;42323;52.170;7.538;2023-04-06T02:10:41;9.20;;;5.22;;
56419;SDS011;42323;52.170;7.538;2023-04-06T02:13:10;7.07;;;5.35;;
56419;SDS011;42323;52.170;7.538;2023-04-06T02:15:36;9.13;;;4.97;;
56419;SDS011;42323;52.170;7.538;2023-04-06T02:18:03;7.07;;;5.25;;
56419;SDS011;42323;52.170;7.538;2023-04-06T02:20:30;8.32;;;4.60;;
56419;SDS011;42323;52.170;7.538;2023-04-06T02:22:58;8.10;;;5.30;;
56419;SDS011;42323;52.170;7.538;2023-04-06T02:25:26;9.75;;;5.85;;
56419;SDS011;42323;52.170;7.538;2023-04-06T02:27:52;7.65;;;5.60;;
56419;SDS011;42323;52.170;7.538;2023-04-06T02:30:19;6.13;;;5.38;;
56419;SDS011;42323;52.170;7.538;2023-04-06T02:32:46;10.40;;;5.60;;
56419;SDS011;42323;52.170;7.538;2023-04-06T02:35:12;8.43;;;5.07;;
56419;SDS011;42323;52.170;7.538;2023-04-06T02:37:39;6.95;;;4.93;;
56419;SDS011;42323;52.170;7.538;2023-04-06T02:40:06;6.70;;;5.07;;
56419;SDS011;42323;52.170;7.538;2023-04-06T02:42:33;8.30;;;5.28;;
56419;SDS011;42323;52.170;7.538;2023-04-06T02:45:02;7.25;;;5.40;;
56419;SDS011;42323;52.170;7.538;2023-04-06T02:47:29;8.23;;;5.60;;
56419;SDS011;42323;52.170;7.538;2023-04-06T02:49:56;9.18;;;6.35;;
56419;SDS011;42323;52.170;7.538;2023-04-06T02:52:22;8.73;;;5.63;;
56419;SDS011;42323;52.170;7.538;2023-04-06T02:54:49;7.90;;;5.28;;
56419;SDS011;42323;52.170;7.538;2023-04-06T02:57:17;6.82;;;5.15;;
56419;SDS011;42323;52.170;7.538;2023-04-06T02:59:44;7.88;;;5.22;;
56419;SDS011;42323;52.170;7.538;2023-04-06T03:02:10;10.05;;;5.75;;
56419;SDS011;42323;52.170;7.538;2023-04-06T03:04:37;10.45;;;5.30;;
56419;SDS011;42323;52.170;7.538;2023-04-06T03:07:03;6.95;;;5.03;;
56419;SDS011;42323;52.170;7.538;2023-04-06T03:09:30;6.93;;;5.47;;
56419;SDS011;42323;52.170;7.538;2023-04-06T03:11:56;9.02;;;5.30;;
56419;SDS011;42323;52.170;7.538;2023-04-06T03:14:23;7.28;;;5.80;;
56419;SDS011;42323;52.170;7.538;2023-04-06T03:16:50;9.73;;;6.13;;
56419;SDS011;42323;52.170;7.538;2023-04-06T03:19:17;5.63;;;4.85;;
56419;SDS011;42323;52.170;7.538;2023-04-06T03:21:43;8.52;;;5.30;;
56419;SDS011;42323;52.170;7.538;2023-04-06T03:24:10;7.95;;;5.63;;
56419;SDS011;42323;52.170;7.538;2023-04-06T03:26:36;7.93;;;5.28;;
56419;SDS011;42323;52.170;7.538;2023-04-06T03:29:03;7.95;;;5.18;;
56419;SDS011;42323;52.170;7.538;2023-04-06T03:31:29;8.32;;;6.07;;
56419;SDS011;42323;52.170;7.538;2023-04-06T03:33:56;7.78;;;4.85;;
56419;SDS011;42323;52.170;7.538;2023-04-06T03:36:25;8.30;;;5.50;;
56419;SDS011;42323;52.170;7.538;2023-04-06T03:38:52;7.75;;;5.53;;
56419;SDS011;42323;52.170;7.538;2023-04-06T03:41:19;10.45;;;6.18;;
56419;SDS011;42323;52.170;7.538;2023-04-06T03:43:47;12.95;;;5.65;;
56419;SDS011;42323;52.170;7.538;2023-04-06T03:46:13;6.18;;;4.82;;
56419;SDS011;42323;52.170;7.538;2023-04-06T03:48:40;7.28;;;6.03;;
56419;SDS011;42323;52.170;7.538;2023-04-06T03:51:07;8.30;;;5.68;;
56419;SDS011;42323;52.170;7.538;2023-04-06T03:53:33;8.25;;;5.85;;
56419;SDS011;42323;52.170;7.538;2023-04-06T03:56:00;8.70;;;5.30;;
56419;SDS011;42323;52.170;7.538;2023-04-06T03:58:29;8.93;;;6.15;;
56419;SDS011;42323;52.170;7.538;2023-04-06T04:00:55;8.07;;;5.43;;
56419;SDS011;42323;52.170;7.538;2023-04-06T04:03:22;6.95;;;5.57;;
56419;SDS011;42323;52.170;7.538;2023-04-06T04:05:54;8.18;;;5.00;;
56419;SDS011;42323;52.170;7.538;2023-04-06T04:08:29;9.48;;;6.07;;
56419;SDS011;42323;52.170;7.538;2023-04-06T04:11:06;6.75;;;5.18;;
56419;SDS011;42323;52.170;7.538;2023-04-06T04:13:44;8.80;;;5.80;;
56419;SDS011;42323;52.170;7.538;2023-04-06T04:16:10;10.32;;;5.10;;
56419;SDS011;42323;52.170;7.538;2023-04-06T04:18:37;8.88;;;5.72;;
56419;SDS011;42323;52.170;7.538;2023-04-06T04:21:03;10.32;;;5.70;;
56419;SDS011;42323;52.170;7.538;2023-04-06T04:23:30;7.53;;;5.78;;
56419;SDS011;42323;52.170;7.538;2023-04-06T04:25:57;9.50;;;5.72;;
56419;SDS011;42323;52.170;7.538;2023-04-06T04:28:23;7.63;;;5.35;;
56419;SDS011;42323;52.170;7.538;2023-04-06T04:30:50;10.75;;;6.40;;
56419;SDS011;42323;52.170;7.538;2023-04-06T04:33:17;6.55;;;5.15;;
56419;SDS011;42323;52.170;7.538;2023-04-06T04:35:43;9.65;;;6.55;;
56419;SDS011;42323;52.170;7.538;2023-04-06T04:38:10;10.18;;;5.95;;
56419;SDS011;42323;52.170;7.538;2023-04-06T04:40:39;8.32;;;5.40;;
56419;SDS011;42323;52.170;7.538;2023-04-06T04:43:07;10.85;;;5.95;;
56419;SDS011;42323;52.170;7.538;2023-04-06T04:45:34;8.50;;;4.90;;
56419;SDS011;42323;52.170;7.538;2023-04-06T04:48:03;9.40;;;5.72;;
56419;SDS011;42323;52.170;7.538;2023-04-06T04:50:31;9.48;;;5.40;;
56419;SDS011;42323;52.170;7.538;2023-04-06T04:52:59;10.02;;;5.38;;
56419;SDS011;42323;52.170;7.538;2023-04-06T04:55:35;8.15;;;5.93;;
56419;SDS011;42323;52.170;7.538;2023-04-06T04:58:02;12.18;;;5.90;;
56419;SDS011;42323;52.170;7.538;2023-04-06T05:00:41;10.32;;;5.45;;
56419;SDS011;42323;52.170;7.538;2023-04-06T05:03:23;8.57;;;5.85;;
56419;SDS011;42323;52.170;7.538;2023-04-06T05:06:03;9.20;;;5.63;;
56419;SDS011;42323;52.170;7.538;2023-04-06T05:09:10;8.75;;;5.82;;
56419;SDS011;42323;52.170;7.538;2023-04-06T05:12:08;8.68;;;5.45;;
56419;SDS011;42323;52.170;7.538;2023-04-06T05:19:25;9.30;;;5.40;;
56419;SDS011;42323;52.170;7.538;2023-04-06T05:34:13;7.95;;;5.45;;
56419;SDS011;42323;52.170;7.538;2023-04-06T05:41:32;8.00;;;5.82;;
56419;SDS011;42323;52.170;7.538;2023-04-06T06:02:10;9.32;;;6.03;;
56419;SDS011;42323;52.170;7.538;2023-04-06T06:05:06;5.78;;;4.85;;
56419;SDS011;42323;52.170;7.538;2023-04-06T06:11:35;11.00;;;5.53;;
56419;SDS011;42323;52.170;7.538;2023-04-06T06:14:40;10.85;;;5.13;;
56419;SDS011;42323;52.170;7.538;2023-04-06T06:36:35;7.35;;;5.20;;
56419;SDS011;42323;52.170;7.538;2023-04-06T06:57:41;7.68;;;6.10;;
56419;SDS011;42323;52.170;7.538;2023-04-06T07:19:54;9.45;;;6.30;;
56419;SDS011;42323;52.170;7.538;2023-04-06T07:42:45;8.32;;;5.75;;
56419;SDS011;42323;52.170;7.538;2023-04-06T07:54:05;12.57;;;6.32;;
56419;SDS011;42323;52.170;7.538;2023-04-06T07:59:28;11.48;;;6.90;;
56419;SDS011;42323;52.170;7.538;2023-04-06T09:08:01;10.07;;;6.60;;
56419;SDS011;42323;52.170;7.538;2023-04-06T09:25:34;9.60;;;6.70;;
56419;SDS011;42323;52.170;7.538;2023-04-06T09:28:05;11.00;;;7.40;;
56419;SDS011;42323;52.170;7.538;2023-04-06T11:04:15;13.77;;;9.80;;
56419;SDS011;42323;52.170;7.538;2023-04-06T11:07:52;16.85;;;10.95;;
56419;SDS011;42323;52.170;7.538;2023-04-06T12:14:58;17.45;;;9.50;;
56419;SDS011;42323;52.170;7.538;2023-04-06T12:17:44;16.48;;;9.90;;
56419;SDS011;42323;52.170;7.538;2023-04-06T13:07:45;16.17;;;8.82;;
56419;SDS011;42323;52.170;7.538;2023-04-06T13:11:07;15.07;;;8.70;;
56419;SDS011;42323;52.170;7.538;2023-04-06T13:14:08;13.80;;;8.32;;
56419;SDS011;42323;52.170;7.538;2023-04-06T14:22:54;15.57;;;8.27;;
56419;SDS011;42323;52.170;7.538;2023-04-06T14:48:06;17.23;;;8.98;;
56419;SDS011;42323;52.170;7.538;2023-04-06T14:58:48;13.85;;;8.07;;
56419;SDS011;42323;52.170;7.538;2023-04-06T15:01:17;16.55;;;9.95;;
56419;SDS011;42323;52.170;7.538;2023-04-06T15:03:45;16.02;;;8.90;;
56419;SDS011;42323;52.170;7.538;2023-04-06T15:06:12;16.30;;;9.15;;
56419;SDS011;42323;52.170;7.538;2023-04-06T15:08:43;17.77;;;9.85;;
56419;SDS011;42323;52.170;7.538;2023-04-06T15:11:10;14.38;;;8.95;;
56419;SDS011;42323;52.170;7.538;2023-04-06T15:13:38;18.05;;;9.00;;
56419;SDS011;42323;52.170;7.538;2023-04-06T15:16:06;18.00;;;8.68;;
56419;SDS011;42323;52.170;7.538;2023-04-06T15:18:33;15.48;;;8.63;;
56419;SDS011;42323;52.170;7.538;2023-04-06T15:21:00;17.58;;;8.85;;
56419;SDS011;42323;52.170;7.538;2023-04-06T15:23:27;16.45;;;8.50;;
56419;SDS011;42323;52.170;7.538;2023-04-06T15:25:57;13.05;;;7.50;;
56419;SDS011;42323;52.170;7.538;2023-04-06T15:28:24;12.20;;;8.02;;
56419;SDS011;42323;52.170;7.538;2023-04-06T15:30:50;14.57;;;7.03;;
56419;SDS011;42323;52.170;7.538;2023-04-06T15:33:20;14.07;;;7.50;;
56419;SDS011;42323;52.170;7.538;2023-04-06T15:35:51;15.82;;;7.70;;
56419;SDS011;42323;52.170;7.538;2023-04-06T15:38:20;14.98;;;7.95;;
56419;SDS011;42323;52.170;7.538;2023-04-06T15:40:47;13.93;;;7.18;;
56419;SDS011;42323;52.170;7.538;2023-04-06T15:43:15;14.25;;;6.93;;
56419;SDS011;42323;52.170;7.538;2023-04-06T15:45:42;14.30;;;7.22;;
56419;SDS011;42323;52.170;7.538;2023-04-06T15:48:08;19.30;;;9.52;;
56419;SDS011;42323;52.170;7.538;2023-04-06T15:50:37;15.43;;;7.55;;
56419;SDS011;42323;52.170;7.538;2023-04-06T15:53:04;12.30;;;6.63;;
56419;SDS011;42323;52.170;7.538;2023-04-06T15:55:33;14.18;;;7.25;;
56419;SDS011;42323;52.170;7.538;2023-04-06T15:57:59;13.30;;;6.75;;
56419;SDS011;42323;52.170;7.538;2023-04-06T16:00:26;12.57;;;7.03;;
56419;SDS011;42323;52.170;7.538;2023-04-06T16:02:54;14.43;;;7.95;;
56419;SDS011;42323;52.170;7.538;2023-04-06T16:05:22;14.07;;;8.32;;
56419;SDS011;42323;52.170;7.538;2023-04-06T16:07:49;14.32;;;7.72;;
56419;SDS011;42323;52.170;7.538;2023-04-06T16:10:18;15.57;;;8.05;;
56419;SDS011;42323;52.170;7.538;2023-04-06T16:12:44;13.82;;;7.90;;
56419;SDS011;42323;52.170;7.538;2023-04-06T16:15:11;13.52;;;7.55;;
56419;SDS011;42323;52.170;7.538;2023-04-06T16:17:37;16.63;;;7.10;;
56419;SDS011;42323;52.170;7.538;2023-04-06T16:20:04;13.25;;;7.05;;
56419;SDS011;42323;52.170;7.538;2023-04-06T16:22:31;13.82;;;7.88;;
56419;SDS011;42323;52.170;7.538;2023-04-06T16:24:58;13.57;;;7.60;;
56419;SDS011;42323;52.170;7.538;2023-04-06T16:27:25;14.73;;;7.90;;
56419;SDS011;42323;52.170;7.538;2023-04-06T16:29:52;13.25;;;8.02;;
56419;SDS011;42323;52.170;7.538;2023-04-06T16:32:19;11.20;;;6.90;;
56419;SDS011;42323;52.170;7.538;2023-04-06T16:34:45;12.13;;;6.82;;
56419;SDS011;42323;52.170;7.538;2023-04-06T16:37:12;14.55;;;8.20;;
56419;SDS011;42323;52.170;7.538;2023-04-06T16:39:39;13.18;;;6.50;;
56419;SDS011;42323;52.170;7.538;2023-04-06T16:42:05;9.68;;;6.80;;
56419;SDS011;42323;52.170;7.538;2023-04-06T16:44:31;10.50;;;6.90;;
56419;SDS011;42323;52.170;7.538;2023-04-06T16:46:58;16.60;;;7.30;;
56419;SDS011;42323;52.170;7.538;2023-04-06T16:49:25;13.05;;;7.53;;
56419;SDS011;42323;52.170;7.538;2023-04-06T16:51:51;14.25;;;8.80;;
56419;SDS011;42323;52.170;7.538;2023-04-06T16:54:18;13.55;;;7.13;;
56419;SDS011;42323;52.170;7.538;2023-04-06T16:56:44;13.70;;;7.53;;
56419;SDS011;42323;52.170;7.538;2023-04-06T16:59:11;13.10;;;6.97;;
56419;SDS011;42323;52.170;7.538;2023-04-06T17:01:37;15.98;;;8.10;;
56419;SDS011;42323;52.170;7.538;2023-04-06T17:04:04;14.73;;;8.45;;
56419;SDS011;42323;52.170;7.538;2023-04-06T17:06:31;11.68;;;7.47;;
56419;SDS011;42323;52.170;7.538;2023-04-06T17:08:58;13.50;;;7.85;;
56419;SDS011;42323;52.170;7.538;2023-04-06T17:11:25;16.60;;;7.55;;
56419;SDS011;42323;52.170;7.538;2023-04-06T17:14:08;13.38;;;6.85;;
56419;SDS011;42323;52.170;7.538;2023-04-06T17:16:35;12.52;;;6.97;;
56419;SDS011;42323;52.170;7.538;2023-04-06T17:19:01;17.92;;;9.40;;
56419;SDS011;42323;52.170;7.538;2023-04-06T17:21:28;15.23;;;7.53;;
56419;SDS011;42323;52.170;7.538;2023-04-06T17:23:54;14.13;;;7.47;;
56419;SDS011;42323;52.170;7.538;2023-04-06T17:26:21;16.10;;;8.20;;
56419;SDS011;42323;52.170;7.538;2023-04-06T17:28:48;14.25;;;8.18;;
56419;SDS011;42323;52.170;7.538;2023-04-06T17:31:14;12.68;;;7.53;;
56419;SDS011;42323;52.170;7.538;2023-04-06T17:33:41;17.05;;;8.20;;
56419;SDS011;42323;52.170;7.538;2023-04-06T17:36:07;14.45;;;8.73;;
56419;SDS011;42323;52.170;7.538;2023-04-06T17:38:37;15.18;;;7.88;;
56419;SDS011;42323;52.170;7.538;2023-04-06T17:41:12;13.90;;;8.30;;
56419;SDS011;42323;52.170;7.538;2023-04-06T17:43:39;13.88;;;8.35;;
56419;SDS011;42323;52.170;7.538;2023-04-06T17:46:05;16.08;;;7.88;;
56419;SDS011;42323;52.170;7.538;2023-04-06T17:48:32;16.50;;;8.35;;
56419;SDS011;42323;52.170;7.538;2023-04-06T17:50:59;18.38;;;8.25;;
56419;SDS011;42323;52.170;7.538;2023-04-06T17:53:25;14.25;;;8.80;;
56419;SDS011;42323;52.170;7.538;2023-04-06T17:55:55;12.23;;;7.25;;
56419;SDS011;42323;52.170;7.538;2023-04-06T17:58:22;13.77;;;8.25;;
56419;SDS011;42323;52.170;7.538;2023-04-06T18:00:48;13.25;;;7.82;;
56419;SDS011;42323;52.170;7.538;2023-04-06T18:03:15;13.75;;;7.68;;
56419;SDS011;42323;52.170;7.538;2023-04-06T18:05:41;15.27;;;7.97;;
56419;SDS011;42323;52.170;7.538;2023-04-06T18:08:09;15.98;;;8.07;;
56419;SDS011;42323;52.170;7.538;2023-04-06T18:10:37;14.38;;;7.93;;
56419;SDS011;42323;52.170;7.538;2023-04-06T18:13:05;15.75;;;8.05;;
56419;SDS011;42323;52.170;7.538;2023-04-06T18:15:33;11.85;;;8.00;;
56419;SDS011;42323;52.170;7.538;2023-04-06T18:18:01;12.20;;;6.72;;
56419;SDS011;42323;52.170;7.538;2023-04-06T18:20:28;14.13;;;8.77;;
56419;SDS011;42323;52.170;7.538;2023-04-06T18:22:54;13.13;;;7.80;;
56419;SDS011;42323;52.170;7.538;2023-04-06T18:25:21;18.13;;;9.00;;
56419;SDS011;42323;52.170;7.538;2023-04-06T18:27:48;15.98;;;8.48;;
56419;SDS011;42323;52.170;7.538;2023-04-06T18:30:15;12.90;;;7.30;;
56419;SDS011;42323;52.170;7.538;2023-04-06T18:32:43;15.10;;;8.38;;
56419;SDS011;42323;52.170;7.538;2023-04-06T18:35:09;13.73;;;7.38;;
56419;SDS011;42323;52.170;7.538;2023-04-06T18:37:36;15.75;;;7.63;;
56419;SDS011;42323;52.170;7.538;2023-04-06T18:40:03;12.90;;;7.45;;
56419;SDS011;42323;52.170;7.538;2023-04-06T18:42:30;12.68;;;7.55;;
56419;SDS011;42323;52.170;7.538;2023-04-06T18:44:56;14.18;;;8.48;;
56419;SDS011;42323;52.170;7.538;2023-04-06T18:47:22;14.73;;;7.80;;
56419;SDS011;42323;52.170;7.538;2023-04-06T18:49:49;13.73;;;7.53;;
56419;SDS011;42323;52.170;7.538;2023-04-06T18:52:15;13.25;;;7.75;;
56419;SDS011;42323;52.170;7.538;2023-04-06T18:54:42;11.68;;;6.95;;
56419;SDS011;42323;52.170;7.538;2023-04-06T18:57:08;13.60;;;7.65;;
56419;SDS011;42323;52.170;7.538;2023-04-06T18:59:36;11.77;;;7.88;;
56419;SDS011;42323;52.170;7.538;2023-04-06T19:02:02;13.68;;;8.00;;
56419;SDS011;42323;52.170;7.538;2023-04-06T19:04:29;15.48;;;7.85;;
56419;SDS011;42323;52.170;7.538;2023-04-06T19:06:56;14.02;;;7.45;;
56419;SDS011;42323;52.170;7.538;2023-04-06T19:09:22;14.57;;;7.95;;
56419;SDS011;42323;52.170;7.538;2023-04-06T19:11:49;12.65;;;7.32;;
56419;SDS011;42323;52.170;7.538;2023-04-06T19:14:16;12.73;;;7.35;;
56419;SDS011;42323;52.170;7.538;2023-04-06T19:16:42;12.82;;;7.68;;
56419;SDS011;42323;52.170;7.538;2023-04-06T19:19:17;12.05;;;6.65;;
56419;SDS011;42323;52.170;7.538;2023-04-06T19:21:44;13.57;;;8.35;;
56419;SDS011;42323;52.170;7.538;2023-04-06T19:24:13;17.60;;;9.70;;
56419;SDS011;42323;52.170;7.538;2023-04-06T19:26:40;14.57;;;8.40;;
56419;SDS011;42323;52.170;7.538;2023-04-06T19:29:08;12.65;;;7.85;;
56419;SDS011;42323;52.170;7.538;2023-04-06T19:31:35;11.98;;;8.00;;
56419;SDS011;42323;52.170;7.538;2023-04-06T19:34:02;16.98;;;7.80;;
56419;SDS011;42323;52.170;7.538;2023-04-06T19:36:30;13.57;;;8.15;;
56419;SDS011;42323;52.170;7.538;2023-04-06T19:39:06;12.50;;;7.70;;
56419;SDS011;42323;52.170;7.538;2023-04-06T19:41:33;15.02;;;7.80;;
56419;SDS011;42323;52.170;7.538;2023-04-06T19:44:06;13.65;;;7.57;;
56419;SDS011;42323;52.170;7.538;2023-04-06T19:46:33;13.65;;;7.63;;
56419;SDS011;42323;52.170;7.538;2023-04-06T19:49:00;14.15;;;7.85;;
56419;SDS011;42323;52.170;7.538;2023-04-06T19:51:30;14.88;;;8.73;;
56419;SDS011;42323;52.170;7.538;2023-04-06T19:53:59;14.18;;;8.25;;
56419;SDS011;42323;52.170;7.538;2023-04-06T19:56:27;13.30;;;7.72;;
56419;SDS011;42323;52.170;7.538;2023-04-06T19:58:54;12.55;;;6.85;;
56419;SDS011;42323;52.170;7.538;2023-04-06T20:01:21;13.38;;;7.72;;
56419;SDS011;42323;52.170;7.538;2023-04-06T20:03:48;13.13;;;7.93;;
56419;SDS011;42323;52.170;7.538;2023-04-06T20:06:15;13.65;;;6.80;;
56419;SDS011;42323;52.170;7.538;2023-04-06T20:08:42;13.75;;;7.93;;
56419;SDS011;42323;52.170;7.538;2023-04-06T20:11:09;13.48;;;7.22;;
56419;SDS011;42323;52.170;7.538;2023-04-06T20:13:36;14.52;;;8.35;;
56419;SDS011;42323;52.170;7.538;2023-04-06T20:16:03;13.93;;;7.45;;
56419;SDS011;42323;52.170;7.538;2023-04-06T20:18:30;16.63;;;7.70;;
56419;SDS011;42323;52.170;7.538;2023-04-06T20:20:57;14.52;;;7.93;;
56419;SDS011;42323;52.170;7.538;2023-04-06T20:23:23;15.90;;;8.55;;
56419;SDS011;42323;52.170;7.538;2023-04-06T20:25:50;12.82;;;7.28;;
56419;SDS011;42323;52.170;7.538;2023-04-06T20:28:17;15.85;;;8.25;;
56419;SDS011;42323;52.170;7.538;2023-04-06T20:30:43;17.67;;;8.48;;
56419;SDS011;42323;52.170;7.538;2023-04-06T20:33:10;15.18;;;7.57;;
56419;SDS011;42323;52.170;7.538;2023-04-06T20:35:36;13.55;;;7.70;;
56419;SDS011;42323;52.170;7.538;2023-04-06T20:38:03;12.80;;;7.85;;
56419;SDS011;42323;52.170;7.538;2023-04-06T20:40:29;14.48;;;7.70;;
56419;SDS011;42323;52.170;7.538;2023-04-06T21:04:34;15.70;;;8.30;;
56419;SDS011;42323;52.170;7.538;2023-04-06T21:07:02;11.15;;;7.03;;
56419;SDS011;42323;52.170;7.538;2023-04-06T21:09:32;12.30;;;7.15;;
56419;SDS011;42323;52.170;7.538;2023-04-06T21:12:01;11.95;;;7.40;;
56419;SDS011;42323;52.170;7.538;2023-04-06T21:14:28;17.73;;;8.35;;
56419;SDS011;42323;52.170;7.538;2023-04-06T21:16:55;13.90;;;8.48;;
56419;SDS011;42323;52.170;7.538;2023-04-06T21:19:22;17.45;;;8.60;;
56419;SDS011;42323;52.170;7.538;2023-04-06T21:21:49;13.13;;;8.13;;
56419;SDS011;42323;52.170;7.538;2023-04-06T22:07:20;18.38;;;9.35;;
56419;SDS011;42323;52.170;7.538;2023-04-06T22:50:09;15.93;;;9.40;;
56419;SDS011;42323;52.170;7.538;2023-04-06T22:52:36;17.65;;;8.73;;
56419;SDS011;42323;52.170;7.538;2023-04-06T22:55:03;15.55;;;9.43;;
56419;SDS011;42323;52.170;7.538;2023-04-06T22:57:29;16.88;;;9.30;;
56419;SDS011;42323;52.170;7.538;2023-04-06T22:59:56;16.73;;;8.95;;
56419;SDS011;42323;52.170;7.538;2023-04-06T23:02:22;18.13;;;9.50;;
56419;SDS011;42323;52.170;7.538;2023-04-06T23:04:49;19.15;;;9.40;;
56419;SDS011;42323;52.170;7.538;2023-04-06T23:07:16;19.50;;;9.00;;
56419;SDS011;42323;52.170;7.538;2023-04-06T23:09:43;17.30;;;10.00;;
56419;SDS011;42323;52.170;7.538;2023-04-06T23:12:10;18.05;;;9.63;;
56419;SDS011;42323;52.170;7.538;2023-04-06T23:14:37;13.63;;;8.65;;
56419;SDS011;42323;52.170;7.538;2023-04-06T23:17:03;14.50;;;8.80;;
56419;SDS011;42323;52.170;7.538;2023-04-06T23:19:30;19.67;;;9.70;;
56419;SDS011;42323;52.170;7.538;2023-04-06T23:21:56;17.98;;;10.38;;
56419;SDS011;42323;52.170;7.538;2023-04-06T23:24:23;17.83;;;9.70;;
56419;SDS011;42323;52.170;7.538;2023-04-06T23:26:50;15.30;;;9.13;;
56419;SDS011;42323;52.170;7.538;2023-04-06T23:29:17;15.00;;;8.60;;
56419;SDS011;42323;52.170;7.538;2023-04-06T23:31:43;17.67;;;9.50;;
56419;SDS011;42323;52.170;7.538;2023-04-06T23:34:10;17.55;;;9.35;;
56419;SDS011;42323;52.170;7.538;2023-04-06T23:36:37;14.25;;;8.52;;
56419;SDS011;42323;52.170;7.538;2023-04-06T23:39:04;16.48;;;8.82;;
56419;SDS011;42323;52.170;7.538;2023-04-06T23:41:31;15.80;;;9.13;;
56419;SDS011;42323;52.170;7.538;2023-04-06T23:43:57;15.02;;;8.80;;
56419;SDS011;42323;52.170;7.538;2023-04-06T23:46:24;14.85;;;8.70;;
56419;SDS011;42323;52.170;7.538;2023-04-06T23:48:51;14.88;;;9.68;;
56419;SDS011;42323;52.170;7.538;2023-04-06T23:51:17;16.10;;;8.82;;
56419;SDS011;42323;52.170;7.538;2023-04-06T23:53:44;16.85;;;8.98;;
56419;SDS011;42323;52.170;7.538;2023-04-06T23:56:11;16.42;;;8.88;;
56419;SDS011;42323;52.170;7.538;2023-04-06T23:58:37;14.70;;;7.78;;
